Time;durP1;ratioP1;P1;durP2;ratioP2;P2;SDS_P1;SDS_P2;PMS_P1;PMS_P2;Temp;Humidity;BMP_temperature;BMP_pressure;BME280_temperature;BME280_humidity;BME280_pressure;Samples;Min_cycle;Max_cycle;Signal;HPM_P1;HPM_P2
2024/03/15 00:00:48;;;;;;;2.72;1.58;;;12.10;99.90;;;;;;5018680;28;20161;-80
2024/03/15 00:03:14;;;;;;;2.42;1.02;;;12.00;99.90;;;;;;5005380;28;20034;-81
2024/03/15 00:05:39;;;;;;;2.67;1.15;;;12.00;99.90;;;;;;5004699;28;20045;-81
2024/03/15 00:08:06;;;;;;;2.55;1.30;;;11.90;99.90;;;;;;5005398;28;20143;-81
2024/03/15 00:10:32;;;;;;;1.35;1.02;;;11.80;99.90;;;;;;5023622;28;20053;-81
2024/03/15 00:12:57;;;;;;;3.20;1.40;;;11.80;99.90;;;;;;5009581;28;20046;-81
2024/03/15 00:15:25;;;;;;;2.83;0.95;;;11.70;99.90;;;;;;4999784;28;20049;-81
2024/03/15 00:17:53;;;;;;;1.55;0.80;;;11.60;99.90;;;;;;5006919;28;20054;-81
2024/03/15 00:20:20;;;;;;;1.48;0.80;;;11.60;99.90;;;;;;5014856;28;20048;-81
2024/03/15 00:22:45;;;;;;;1.80;1.05;;;11.50;99.90;;;;;;4998166;28;20041;-81
2024/03/15 00:25:13;;;;;;;2.13;0.85;;;11.60;99.90;;;;;;5027894;28;20042;-81
2024/03/15 00:27:39;;;;;;;3.58;1.00;;;11.50;99.90;;;;;;5009821;28;20073;-79
2024/03/15 00:30:07;;;;;;;1.95;0.85;;;11.50;99.90;;;;;;4994588;28;20099;-81
2024/03/15 00:32:32;;;;;;;1.35;1.08;;;11.50;99.90;;;;;;5004810;28;20037;-81
2024/03/15 00:34:59;;;;;;;2.63;1.27;;;11.40;99.90;;;;;;5015635;28;20344;-81
2024/03/15 00:37:24;;;;;;;1.58;0.88;;;11.60;99.90;;;;;;5004055;28;20557;-81
2024/03/15 00:39:50;;;;;;;2.03;1.00;;;11.60;99.90;;;;;;5008352;28;20116;-80
2024/03/15 00:42:16;;;;;;;2.53;1.30;;;11.60;99.90;;;;;;4996392;28;20041;-81
2024/03/15 00:44:41;;;;;;;2.33;1.10;;;11.70;99.90;;;;;;5013519;28;20144;-80
2024/03/15 00:47:07;;;;;;;3.25;1.30;;;11.70;99.90;;;;;;5010736;28;20040;-81
2024/03/15 00:49:34;;;;;;;7.72;1.15;;;11.70;99.90;;;;;;5007335;28;20509;-81
2024/03/15 00:52:00;;;;;;;3.55;1.23;;;11.80;99.90;;;;;;5013019;28;20111;-81
2024/03/15 00:54:27;;;;;;;1.40;1.00;;;11.80;99.90;;;;;;5006630;28;20288;-81
2024/03/15 00:56:53;;;;;;;3.10;1.23;;;11.80;99.90;;;;;;5011436;28;20053;-81
2024/03/15 00:59:20;;;;;;;4.57;1.30;;;11.80;99.90;;;;;;5007049;28;20042;-81
2024/03/15 01:01:45;;;;;;;3.00;1.30;;;11.80;99.90;;;;;;5010609;28;20121;-81
2024/03/15 01:04:13;;;;;;;2.38;0.95;;;11.70;99.90;;;;;;5003869;28;20145;-81
2024/03/15 01:06:39;;;;;;;2.30;0.90;;;11.80;99.90;;;;;;5001596;28;20149;-81
2024/03/15 01:09:04;;;;;;;1.13;0.70;;;11.80;99.90;;;;;;5005439;28;20038;-81
2024/03/15 01:11:30;;;;;;;2.00;1.08;;;11.80;99.90;;;;;;5013810;28;20065;-81
2024/03/15 01:13:58;;;;;;;1.35;0.68;;;11.80;99.90;;;;;;5016129;28;20508;-81
2024/03/15 01:16:25;;;;;;;2.28;1.17;;;11.80;99.90;;;;;;5013203;28;20045;-81
2024/03/15 01:18:50;;;;;;;3.70;0.93;;;11.80;99.90;;;;;;4998320;28;20125;-81
2024/03/15 01:21:16;;;;;;;0.85;0.55;;;11.80;99.90;;;;;;5006255;28;20224;-81
2024/03/15 01:23:42;;;;;;;1.65;0.90;;;11.80;99.90;;;;;;4999656;28;20037;-81
2024/03/15 01:26:08;;;;;;;2.38;0.73;;;11.70;99.90;;;;;;4996596;28;20033;-81
2024/03/15 01:28:33;;;;;;;2.22;0.88;;;11.70;99.90;;;;;;4998841;28;20129;-80
2024/03/15 01:30:59;;;;;;;1.38;0.80;;;11.70;99.90;;;;;;5004186;28;20041;-81
2024/03/15 01:33:28;;;;;;;2.05;1.15;;;11.70;99.90;;;;;;5013697;28;20510;-81
2024/03/15 01:35:54;;;;;;;2.05;0.93;;;11.70;99.90;;;;;;5004630;28;20034;-81
2024/03/15 01:38:19;;;;;;;2.40;1.30;;;11.60;99.90;;;;;;5030120;28;20101;-81
2024/03/15 01:40:45;;;;;;;1.92;0.95;;;11.60;99.90;;;;;;5005975;28;20052;-81
2024/03/15 01:43:14;;;;;;;1.60;1.10;;;11.60;99.90;;;;;;5015369;28;20502;-81
2024/03/15 01:45:40;;;;;;;2.03;1.08;;;11.50;99.90;;;;;;5010541;28;20426;-81
2024/03/15 01:48:07;;;;;;;3.08;1.10;;;11.50;99.90;;;;;;5007709;28;20402;-81
2024/03/15 01:50:34;;;;;;;2.13;1.23;;;11.50;99.90;;;;;;5011887;28;20069;-81
2024/03/15 01:53:02;;;;;;;1.77;0.75;;;11.50;99.90;;;;;;5007796;28;20480;-80
2024/03/15 01:55:28;;;;;;;1.65;0.93;;;11.50;99.90;;;;;;5002361;28;20034;-81
2024/03/15 01:57:54;;;;;;;1.85;1.05;;;11.50;99.90;;;;;;5005716;28;20041;-81
2024/03/15 02:00:20;;;;;;;2.88;1.25;;;11.50;99.90;;;;;;5003015;28;20369;-83
2024/03/15 02:02:46;;;;;;;1.70;1.00;;;11.50;99.90;;;;;;5001071;28;20052;-82
2024/03/15 02:05:13;;;;;;;1.63;1.00;;;11.50;99.90;;;;;;5009510;28;20051;-81
2024/03/15 02:07:38;;;;;;;1.90;1.20;;;11.60;99.90;;;;;;5004526;28;20123;-81
2024/03/15 02:10:15;;;;;;;2.15;1.10;;;11.60;99.90;;;;;;5003096;28;20092;-81
2024/03/15 02:12:41;;;;;;;1.15;0.77;;;11.70;99.90;;;;;;5008995;28;20048;-81
2024/03/15 02:15:08;;;;;;;1.40;0.90;;;11.70;99.90;;;;;;5008247;28;20053;-81
2024/03/15 02:17:42;;;;;;;2.92;1.13;;;11.70;99.90;;;;;;5015269;28;20128;-81
2024/03/15 02:20:11;;;;;;;;;;;11.80;99.90;;;;;;5013938;28;20409;-80
2024/03/15 02:22:38;;;;;;;1.67;1.10;;;11.80;99.90;;;;;;4987778;28;19948;-81
2024/03/15 02:25:05;;;;;;;1.67;0.80;;;11.80;99.90;;;;;;5027486;28;20052;-81
2024/03/15 02:27:31;;;;;;;2.28;0.80;;;11.80;99.90;;;;;;5006436;28;20103;-79
2024/03/15 02:29:56;;;;;;;3.50;1.38;;;11.80;99.90;;;;;;5010869;28;20108;-81
2024/03/15 02:32:25;;;;;;;1.15;0.80;;;11.90;99.90;;;;;;5002766;28;20052;-80
2024/03/15 02:34:54;;;;;;;2.05;0.82;;;11.90;99.90;;;;;;4996872;28;20363;-81
2024/03/15 02:37:20;;;;;;;2.88;1.00;;;12.00;99.90;;;;;;5007463;28;20042;-81
2024/03/15 02:39:48;;;;;;;1.80;1.02;;;12.00;99.90;;;;;;4990596;28;20040;-82
2024/03/15 02:42:14;;;;;;;3.03;0.95;;;12.00;99.90;;;;;;5011220;28;20045;-81
2024/03/15 02:44:40;;;;;;;3.08;1.45;;;12.00;99.90;;;;;;5006114;28;20056;-82
2024/03/15 02:47:06;;;;;;;1.98;0.75;;;12.00;99.90;;;;;;5000240;28;20129;-82
2024/03/15 02:49:32;;;;;;;2.20;1.00;;;12.10;99.90;;;;;;5024300;28;20080;-82
2024/03/15 02:51:57;;;;;;;2.20;0.82;;;12.10;99.90;;;;;;4994742;28;20053;-81
2024/03/15 02:54:27;;;;;;;1.80;0.88;;;12.20;99.90;;;;;;5005637;28;20119;-82
2024/03/15 02:56:52;;;;;;;1.27;0.88;;;12.10;99.90;;;;;;5004183;28;20496;-82
2024/03/15 02:59:19;;;;;;;2.05;1.08;;;12.20;99.90;;;;;;4996058;28;20135;-82
2024/03/15 03:01:46;;;;;;;2.75;1.00;;;12.20;99.90;;;;;;5015072;28;20146;-82
2024/03/15 03:04:12;;;;;;;1.63;1.17;;;12.20;99.90;;;;;;5011466;28;20045;-82
2024/03/15 03:06:38;;;;;;;1.02;0.40;;;12.20;99.90;;;;;;5004488;28;20037;-80
2024/03/15 03:09:06;;;;;;;2.47;1.27;;;12.10;99.90;;;;;;4983538;28;20141;-81
2024/03/15 03:11:32;;;;;;;1.77;0.95;;;12.20;99.90;;;;;;5022152;28;20075;-82
2024/03/15 03:13:58;;;;;;;3.00;1.30;;;12.10;99.90;;;;;;5001231;28;20456;-82
2024/03/15 03:16:24;;;;;;;1.35;0.90;;;12.10;99.90;;;;;;5007845;28;20117;-81
2024/03/15 03:18:52;;;;;;;1.42;0.88;;;12.20;99.90;;;;;;5010368;28;20124;-82
2024/03/15 03:21:18;;;;;;;2.25;0.70;;;12.10;99.90;;;;;;4997352;28;20044;-82
2024/03/15 03:23:44;;;;;;;1.90;1.13;;;12.10;99.90;;;;;;4994974;28;20045;-81
2024/03/15 03:26:10;;;;;;;1.98;1.00;;;12.10;99.90;;;;;;5012202;28;20069;-81
2024/03/15 03:28:36;;;;;;;1.40;0.90;;;12.10;99.90;;;;;;4992362;28;20240;-82
2024/03/15 03:31:02;;;;;;;1.50;0.90;;;12.10;99.90;;;;;;5006200;28;20033;-81
2024/03/15 03:33:28;;;;;;;1.40;0.95;;;12.10;99.90;;;;;;5007486;28;20050;-82
2024/03/15 03:35:56;;;;;;;1.35;0.88;;;12.00;99.90;;;;;;4996134;28;20037;-82
2024/03/15 03:38:22;;;;;;;2.90;1.25;;;12.00;99.90;;;;;;4997201;28;20465;-82
2024/03/15 03:40:51;;;;;;;1.75;1.20;;;12.10;99.90;;;;;;4995421;28;20127;-81
2024/03/15 03:43:17;;;;;;;1.90;1.05;;;12.00;99.90;;;;;;5001704;28;20043;-82
2024/03/15 03:45:46;;;;;;;1.92;0.88;;;12.00;99.90;;;;;;5005629;28;20044;-84
2024/03/15 03:48:13;;;;;;;2.13;1.08;;;11.90;99.90;;;;;;5006964;28;20042;-82
2024/03/15 03:50:39;;;;;;;2.03;1.20;;;12.00;99.90;;;;;;5014526;28;20118;-82
2024/03/15 03:53:05;;;;;;;3.53;1.98;;;12.00;99.90;;;;;;5006211;28;20477;-83
2024/03/15 03:55:32;;;;;;;3.35;1.40;;;11.90;99.90;;;;;;5001681;28;20056;-82
2024/03/15 03:57:58;;;;;;;9.93;1.42;;;11.90;99.90;;;;;;5023427;28;20037;-84
2024/03/15 04:00:24;;;;;;;3.42;1.27;;;11.90;99.90;;;;;;4991522;28;20048;-84
2024/03/15 04:02:52;;;;;;;3.83;1.23;;;11.90;99.90;;;;;;5009756;28;20074;-85
2024/03/15 04:05:19;;;;;;;4.78;1.65;;;11.90;99.90;;;;;;5006465;28;20125;-85
2024/03/15 04:07:46;;;;;;;2.05;1.42;;;11.90;99.90;;;;;;5012218;28;20069;-85
2024/03/15 04:10:13;;;;;;;7.45;1.25;;;11.90;99.90;;;;;;5010472;28;20132;-83
2024/03/15 04:12:40;;;;;;;3.78;1.40;;;11.90;99.90;;;;;;5012518;28;20114;-83
2024/03/15 04:15:07;;;;;;;1.85;1.10;;;11.80;99.90;;;;;;5009380;28;20117;-80
2024/03/15 04:17:35;;;;;;;1.38;0.82;;;11.70;99.90;;;;;;5007983;28;20037;-80
2024/03/15 04:20:01;;;;;;;5.18;1.38;;;11.70;99.90;;;;;;5010672;28;20045;-79
2024/03/15 04:22:27;;;;;;;7.13;1.10;;;11.60;99.90;;;;;;5030285;28;20511;-79
2024/03/15 04:24:54;;;;;;;3.47;1.05;;;11.60;99.90;;;;;;4996845;28;20196;-76
2024/03/15 04:27:20;;;;;;;1.77;1.45;;;11.50;99.90;;;;;;5000468;28;20049;-75
2024/03/15 04:29:46;;;;;;;1.63;1.05;;;11.50;99.90;;;;;;5025882;28;20437;-77
2024/03/15 04:32:12;;;;;;;2.95;1.88;;;11.40;99.90;;;;;;5016823;28;20047;-76
2024/03/15 04:34:38;;;;;;;1.60;1.05;;;11.40;99.90;;;;;;5003084;28;20429;-77
2024/03/15 04:37:11;;;;;;;2.25;1.33;;;11.40;99.90;;;;;;4999064;28;20385;-76
2024/03/15 04:39:37;;;;;;;1.25;0.88;;;11.30;99.90;;;;;;5003414;28;20063;-75
2024/03/15 04:42:03;;;;;;;2.08;1.33;;;11.30;99.90;;;;;;5017452;28;20104;-73
2024/03/15 04:44:33;;;;;;;1.85;1.20;;;11.30;99.90;;;;;;5038753;28;20049;-73
2024/03/15 04:47:01;;;;;;;3.15;1.77;;;11.30;99.90;;;;;;5041674;28;20065;-74
2024/03/15 04:49:28;;;;;;;4.45;1.10;;;11.20;99.90;;;;;;5001455;28;20038;-76
2024/03/15 04:51:56;;;;;;;2.97;1.50;;;11.30;99.90;;;;;;4997620;28;20177;-75
2024/03/15 04:54:22;;;;;;;2.53;1.33;;;11.20;99.90;;;;;;5024392;28;20125;-74
2024/03/15 04:56:48;;;;;;;3.80;1.77;;;11.20;99.90;;;;;;5005039;28;20045;-75
2024/03/15 04:59:15;;;;;;;2.13;1.33;;;11.20;99.90;;;;;;5011188;28;20044;-74
2024/03/15 05:01:42;;;;;;;3.20;1.45;;;11.20;99.90;;;;;;5011906;28;20506;-74
2024/03/15 05:04:08;;;;;;;2.50;1.52;;;11.20;99.90;;;;;;5012810;28;20044;-74
2024/03/15 05:06:34;;;;;;;2.58;1.85;;;11.20;99.90;;;;;;5012710;28;20048;-74
2024/03/15 05:09:00;;;;;;;3.00;1.60;;;11.10;99.90;;;;;;5014142;28;20473;-74
2024/03/15 05:11:26;;;;;;;2.63;1.40;;;11.20;99.90;;;;;;5005484;28;20100;-75
2024/03/15 05:13:51;;;;;;;2.22;1.55;;;11.20;99.90;;;;;;5012578;28;20432;-75
2024/03/15 05:16:17;;;;;;;3.22;1.80;;;11.20;99.90;;;;;;5020670;28;20046;-75
2024/03/15 05:18:43;;;;;;;3.22;1.42;;;11.10;99.90;;;;;;5013842;28;20052;-76
2024/03/15 05:21:09;;;;;;;3.28;1.95;;;11.20;99.90;;;;;;5002181;28;20076;-76
2024/03/15 05:23:37;;;;;;;4.05;2.38;;;11.10;99.90;;;;;;5002494;28;20033;-74
2024/03/15 05:26:05;;;;;;;2.60;1.42;;;11.10;99.90;;;;;;5030949;28;20037;-75
2024/03/15 05:28:34;;;;;;;1.98;1.30;;;11.20;99.90;;;;;;4997661;28;20045;-77
2024/03/15 05:31:03;;;;;;;3.05;2.15;;;11.20;99.90;;;;;;5009499;28;20029;-77
2024/03/15 05:33:31;;;;;;;3.85;2.33;;;11.20;99.90;;;;;;5015105;28;20375;-77
2024/03/15 05:35:57;;;;;;;3.33;1.92;;;11.20;99.90;;;;;;5010655;28;20367;-77
2024/03/15 05:38:26;;;;;;;3.88;2.08;;;11.20;99.90;;;;;;5020105;28;20120;-76
2024/03/15 05:40:51;;;;;;;3.80;2.40;;;11.30;99.90;;;;;;5009719;28;20049;-75
2024/03/15 05:43:17;;;;;;;3.97;2.17;;;11.30;99.90;;;;;;5008068;28;20080;-76
2024/03/15 05:45:43;;;;;;;3.20;1.85;;;11.30;99.90;;;;;;5011429;28;20102;-76
2024/03/15 05:48:09;;;;;;;4.47;2.60;;;11.30;99.90;;;;;;4990228;28;20038;-76
2024/03/15 05:50:35;;;;;;;3.78;2.22;;;11.30;99.90;;;;;;5008926;28;20037;-75
2024/03/15 05:53:00;;;;;;;2.60;1.95;;;11.40;99.90;;;;;;5009659;28;20596;-76
2024/03/15 05:55:26;;;;;;;2.33;1.80;;;11.40;99.90;;;;;;5011652;28;20034;-75
2024/03/15 05:57:53;;;;;;;2.08;1.17;;;11.40;99.90;;;;;;5005403;28;20111;-75
2024/03/15 06:00:23;;;;;;;3.60;2.50;;;11.40;99.90;;;;;;5020484;28;20121;-76
2024/03/15 06:02:49;;;;;;;4.00;2.10;;;11.40;99.90;;;;;;5007181;28;20049;-75
2024/03/15 06:05:18;;;;;;;3.90;2.17;;;11.40;99.90;;;;;;5010888;28;20096;-75
2024/03/15 06:07:44;;;;;;;3.78;2.35;;;11.40;99.90;;;;;;5004935;28;20091;-75
2024/03/15 06:10:09;;;;;;;3.47;2.20;;;11.50;99.90;;;;;;5006272;28;20049;-75
2024/03/15 06:12:35;;;;;;;2.78;1.75;;;11.50;99.90;;;;;;4998106;28;20073;-76
2024/03/15 06:15:02;;;;;;;5.80;2.40;;;11.50;99.90;;;;;;5010814;28;20199;-76
2024/03/15 06:17:31;;;;;;;5.85;1.90;;;11.50;99.90;;;;;;5008632;28;20535;-76
2024/03/15 06:19:57;;;;;;;3.05;1.95;;;11.60;99.90;;;;;;5001622;28;20051;-75
2024/03/15 06:22:24;;;;;;;3.00;2.17;;;11.50;99.90;;;;;;5009200;28;20048;-76
2024/03/15 06:24:52;;;;;;;4.68;2.83;;;11.60;99.90;;;;;;5000799;28;20045;-77
2024/03/15 06:27:20;;;;;;;6.22;2.15;;;11.60;99.90;;;;;;4998685;28;20037;-77
2024/03/15 06:29:50;;;;;;;6.45;2.35;;;11.60;99.90;;;;;;5016916;28;20563;-76
2024/03/15 06:32:25;;;;;;;4.32;2.10;;;11.60;99.90;;;;;;4999042;28;20049;-76
2024/03/15 06:34:57;;;;;;;3.72;2.38;;;11.60;99.90;;;;;;5024868;28;20040;-76
2024/03/15 06:37:23;;;;;;;3.85;1.92;;;11.70;99.90;;;;;;5007845;28;20034;-76
2024/03/15 06:42:34;;;;;;;3.40;2.15;;;11.70;99.90;;;;;;5011740;28;20400;-75
2024/03/15 06:45:20;;;;;;;3.15;2.20;;;11.70;99.90;;;;;;5022586;28;20042;-75
2024/03/15 06:47:52;;;;;;;3.00;1.63;;;11.70;99.90;;;;;;4992145;28;20489;-75
2024/03/15 06:52:44;;;;;;;2.33;1.65;;;11.70;99.90;;;;;;5021770;28;20050;-76
2024/03/15 06:55:11;;;;;;;5.30;1.85;;;11.70;99.90;;;;;;5013765;28;20076;-75
2024/03/15 06:57:39;;;;;;;3.42;1.98;;;11.80;99.90;;;;;;5007655;28;20552;-75
2024/03/15 07:00:08;;;;;;;4.80;2.50;;;11.80;99.90;;;;;;5007868;28;20041;-75
2024/03/15 07:02:36;;;;;;;3.05;1.55;;;11.80;99.90;;;;;;5008588;28;20053;-75
2024/03/15 07:05:03;;;;;;;2.75;1.75;;;11.80;99.90;;;;;;5003704;28;20100;-75
2024/03/15 07:07:31;;;;;;;6.75;2.13;;;11.80;99.90;;;;;;5001272;28;20103;-75
2024/03/15 07:09:56;;;;;;;4.75;2.83;;;11.80;99.90;;;;;;5004934;28;20045;-75
2024/03/15 07:12:22;;;;;;;4.88;1.80;;;11.80;99.90;;;;;;5004443;28;20457;-76
2024/03/15 07:14:50;;;;;;;2.63;1.83;;;11.80;99.90;;;;;;5001539;28;20033;-76
2024/03/15 07:17:16;;;;;;;3.35;1.90;;;11.80;99.90;;;;;;5005201;28;20089;-76
2024/03/15 07:19:44;;;;;;;3.80;1.65;;;11.90;99.90;;;;;;5016472;28;20084;-76
2024/03/15 07:22:10;;;;;;;4.88;1.90;;;11.80;99.90;;;;;;4994137;28;20104;-76
2024/03/15 07:24:36;;;;;;;2.47;1.67;;;11.90;99.90;;;;;;5012488;28;20041;-76
2024/03/15 07:27:04;;;;;;;5.80;2.00;;;11.80;99.90;;;;;;5013267;28;20509;-77
2024/03/15 07:29:30;;;;;;;1.85;1.27;;;11.90;99.90;;;;;;5013679;28;20041;-76
2024/03/15 07:31:55;;;;;;;2.92;1.80;;;11.90;99.90;;;;;;5007840;28;20099;-76
2024/03/15 07:34:44;;;;;;;4.07;2.08;;;11.90;99.90;;;;;;5013280;28;20038;-75
2024/03/15 07:37:11;;;;;;;4.25;1.77;;;11.90;99.90;;;;;;5030945;28;20428;-76
2024/03/15 07:39:37;;;;;;;2.78;1.67;;;11.90;99.90;;;;;;5002053;28;20405;-76
2024/03/15 07:42:04;;;;;;;2.17;1.50;;;11.90;99.90;;;;;;5012088;28;20148;-77
2024/03/15 07:44:39;;;;;;;3.20;1.70;;;12.00;99.90;;;;;;5019618;28;20060;-75
2024/03/15 07:47:06;;;;;;;6.07;1.90;;;12.10;99.90;;;;;;5025192;28;20048;-75
2024/03/15 07:49:31;;;;;;;1.83;1.45;;;12.20;99.90;;;;;;5013206;28;20148;-75
2024/03/15 07:51:58;;;;;;;2.45;1.73;;;12.20;99.90;;;;;;5013900;28;20037;-75
2024/03/15 07:54:23;;;;;;;6.70;1.58;;;12.30;99.90;;;;;;5007411;28;20042;-75
2024/03/15 07:56:49;;;;;;;2.33;1.50;;;12.40;99.90;;;;;;5008482;28;20037;-76
2024/03/15 07:59:18;;;;;;;2.33;1.45;;;12.30;99.90;;;;;;5021641;28;20072;-76
2024/03/15 08:01:44;;;;;;;3.80;1.42;;;12.30;99.90;;;;;;5011614;28;20410;-76
2024/03/15 08:04:09;;;;;;;3.15;2.00;;;12.30;99.90;;;;;;5006241;28;20057;-76
2024/03/15 08:06:36;;;;;;;2.95;1.65;;;12.30;99.90;;;;;;5006852;28;20467;-75
2024/03/15 08:09:03;;;;;;;3.08;1.42;;;12.40;99.90;;;;;;4998802;28;20072;-76
2024/03/15 08:11:29;;;;;;;2.60;1.50;;;12.40;99.90;;;;;;5007557;28;20049;-76
2024/03/15 08:13:54;;;;;;;2.40;1.65;;;12.40;99.90;;;;;;5004733;28;20034;-76
2024/03/15 08:16:23;;;;;;;2.78;1.33;;;12.50;99.90;;;;;;5005518;28;20041;-77
2024/03/15 08:18:49;;;;;;;2.20;1.38;;;12.50;99.90;;;;;;5004998;28;20383;-77
2024/03/15 08:21:15;;;;;;;4.78;1.98;;;12.50;99.90;;;;;;5012260;28;20073;-78
2024/03/15 08:23:45;;;;;;;3.03;1.70;;;12.50;99.90;;;;;;5006244;28;20054;-77
2024/03/15 08:26:14;;;;;;;2.90;1.70;;;12.50;99.90;;;;;;5008323;28;20041;-77
2024/03/15 08:28:40;;;;;;;3.42;2.63;;;12.50;99.90;;;;;;5003881;28;20049;-77
2024/03/15 08:31:07;;;;;;;1.95;1.20;;;12.60;99.90;;;;;;5008727;28;21242;-77
2024/03/15 08:33:33;;;;;;;2.38;1.45;;;12.50;99.90;;;;;;5001646;28;20144;-78
2024/03/15 08:36:00;;;;;;;3.67;1.67;;;12.60;99.90;;;;;;5003935;28;20068;-77
2024/03/15 08:38:26;;;;;;;5.15;1.65;;;12.70;99.90;;;;;;5015988;28;20046;-76
2024/03/15 08:40:52;;;;;;;2.42;1.08;;;12.70;99.90;;;;;;5010136;28;20060;-76
2024/03/15 08:43:18;;;;;;;2.58;1.60;;;12.70;99.90;;;;;;5002583;28;20038;-76
2024/03/15 08:45:43;;;;;;;1.77;1.20;;;12.80;99.90;;;;;;5000961;28;20104;-75
2024/03/15 08:48:12;;;;;;;3.53;1.40;;;12.80;99.90;;;;;;4998488;28;20042;-75
2024/03/15 08:50:38;;;;;;;3.38;1.15;;;12.90;99.90;;;;;;5020857;28;20050;-75
2024/03/15 08:53:07;;;;;;;2.20;1.17;;;12.90;99.90;;;;;;4999194;28;20105;-75
2024/03/15 08:55:33;;;;;;;1.48;0.82;;;12.90;99.90;;;;;;5009899;28;20077;-75
2024/03/15 08:57:59;;;;;;;4.20;1.15;;;12.90;99.90;;;;;;5018117;28;20492;-75
2024/03/15 09:00:25;;;;;;;2.20;1.45;;;13.00;99.90;;;;;;5004045;28;20125;-75
2024/03/15 09:02:50;;;;;;;1.90;1.15;;;13.00;99.90;;;;;;5009326;28;20107;-75
2024/03/15 09:05:16;;;;;;;8.45;1.83;;;13.00;99.90;;;;;;4999860;28;20186;-75
2024/03/15 09:07:42;;;;;;;3.53;1.40;;;13.10;99.90;;;;;;5004246;28;20481;-75
2024/03/15 09:10:13;;;;;;;2.58;1.67;;;13.10;99.90;;;;;;5001766;28;20092;-75
2024/03/15 09:12:44;;;;;;;2.40;1.35;;;13.20;99.90;;;;;;5003070;28;20148;-75
2024/03/15 09:15:17;;;;;;;2.45;1.30;;;13.40;99.90;;;;;;4993156;28;20338;-72
2024/03/15 09:17:44;;;;;;;3.90;1.67;;;13.50;99.90;;;;;;5011005;28;20091;-72
2024/03/15 09:22:57;;;;;;;3.45;2.08;;;13.90;99.90;;;;;;5010144;28;20083;-73
2024/03/15 09:25:30;;;;;;;6.05;1.88;;;14.00;99.90;;;;;;5014040;28;20373;-72
2024/03/15 09:28:00;;;;;;;2.42;1.48;;;13.90;99.90;;;;;;5014354;28;20101;-73
2024/03/15 09:30:27;;;;;;;4.38;1.33;;;13.90;99.90;;;;;;5004445;28;20073;-73
2024/03/15 09:32:59;;;;;;;2.47;1.67;;;13.70;99.90;;;;;;5016371;28;20099;-74
2024/03/15 09:35:27;;;;;;;2.00;1.40;;;13.60;99.90;;;;;;5024715;28;20449;-73
2024/03/15 09:37:53;;;;;;;2.15;1.58;;;13.50;99.90;;;;;;5009495;28;20045;-74
2024/03/15 09:40:20;;;;;;;1.95;1.75;;;13.50;99.90;;;;;;5014401;28;20045;-73
2024/03/15 09:42:52;;;;;;;2.25;1.45;;;13.40;99.90;;;;;;5017350;28;20092;-76
2024/03/15 09:45:18;;;;;;;1.52;0.93;;;13.80;99.90;;;;;;5021394;28;20073;-74
2024/03/15 09:47:49;;;;;;;2.08;0.93;;;13.80;99.90;;;;;;5007523;28;20083;-75
2024/03/15 09:50:21;;;;;;;3.70;1.13;;;13.80;99.90;;;;;;5020613;28;20049;-75
2024/03/15 09:52:49;;;;;;;2.35;1.05;;;13.80;99.90;;;;;;5006672;28;20053;-75
2024/03/15 09:55:19;;;;;;;2.90;0.98;;;13.80;99.90;;;;;;5022964;28;20510;-75
2024/03/15 09:57:46;;;;;;;1.30;0.70;;;13.80;99.90;;;;;;5009778;28;20169;-75
2024/03/15 10:00:23;;;;;;;2.35;1.02;;;14.00;99.90;;;;;;5006469;28;20055;-74
2024/03/15 10:02:54;;;;;;;1.50;0.75;;;14.40;99.90;;;;;;5009335;28;20540;-75
2024/03/15 10:05:21;;;;;;;0.75;0.30;;;14.50;99.90;;;;;;4995551;28;20048;-77
2024/03/15 10:07:50;;;;;;;4.72;0.70;;;14.50;99.90;;;;;;5009954;28;20099;-77
2024/03/15 10:10:17;;;;;;;1.83;0.40;;;14.50;99.90;;;;;;5005771;28;20071;-76
2024/03/15 10:12:45;;;;;;;0.93;0.32;;;14.40;99.90;;;;;;5003596;28;20072;-77
2024/03/15 10:15:12;;;;;;;7.03;1.02;;;14.40;99.90;;;;;;4995666;28;20037;-77
2024/03/15 10:17:39;;;;;;;0.50;0.50;;;14.40;99.90;;;;;;5010999;28;20606;-76
2024/03/15 10:20:18;;;;;;;0.70;0.40;;;14.50;99.90;;;;;;5015408;28;20053;-77
2024/03/15 10:22:45;;;;;;;0.70;0.32;;;14.60;99.90;;;;;;5020080;28;20131;-76
2024/03/15 10:25:16;;;;;;;0.70;0.47;;;14.60;99.90;;;;;;5003587;28;20140;-76
2024/03/15 10:27:43;;;;;;;1.23;0.40;;;14.60;99.90;;;;;;5017461;28;20049;-76
2024/03/15 10:30:16;;;;;;;0.80;0.40;;;14.70;99.90;;;;;;4994509;28;20136;-76
2024/03/15 10:32:49;;;;;;;2.08;0.57;;;14.60;99.90;;;;;;5002997;28;20088;-76
2024/03/15 10:35:15;;;;;;;1.20;0.40;;;14.60;99.90;;;;;;5002051;28;20052;-76
2024/03/15 10:37:44;;;;;;;1.58;0.75;;;14.50;99.90;;;;;;5017549;28;20044;-76
2024/03/15 10:40:18;;;;;;;1.70;0.40;;;14.40;99.90;;;;;;5004492;28;20054;-77
2024/03/15 10:42:49;;;;;;;3.40;0.60;;;14.30;99.90;;;;;;5001631;28;20053;-77
2024/03/15 10:45:25;;;;;;;2.08;0.60;;;14.20;99.90;;;;;;5004339;28;20041;-77
2024/03/15 10:47:52;;;;;;;0.82;0.60;;;14.10;99.90;;;;;;5003064;28;20045;-76
2024/03/15 10:50:23;;;;;;;0.40;0.30;;;14.10;99.90;;;;;;5010398;28;20146;-76
2024/03/15 10:52:51;;;;;;;2.33;0.60;;;14.10;99.90;;;;;;5000161;28;20038;-77
2024/03/15 10:55:18;;;;;;;3.70;0.57;;;14.20;99.90;;;;;;4992678;28;20033;-77
2024/03/15 10:57:45;;;;;;;0.38;0.20;;;14.20;99.90;;;;;;5017784;28;20092;-77
2024/03/15 11:00:17;;;;;;;3.78;0.40;;;14.20;99.90;;;;;;5011700;28;20531;-77
2024/03/15 11:02:49;;;;;;;1.73;0.68;;;14.20;99.90;;;;;;5001976;28;20104;-78
2024/03/15 11:05:22;;;;;;;1.33;0.35;;;14.30;99.90;;;;;;5009559;28;20045;-77
2024/03/15 11:08:00;;;;;;;0.90;0.68;;;14.30;99.90;;;;;;4998803;28;20069;-77
2024/03/15 11:10:26;;;;;;;0.30;0.30;;;14.30;99.90;;;;;;5008544;28;20095;-76
2024/03/15 11:12:52;;;;;;;1.05;0.50;;;14.40;99.90;;;;;;5004789;28;20042;-77
2024/03/15 11:15:20;;;;;;;0.35;0.22;;;14.70;99.90;;;;;;5004019;28;20037;-77
2024/03/15 11:18:03;;;;;;;1.33;0.40;;;15.30;99.90;;;;;;5005741;28;20517;-77
2024/03/15 11:20:52;;;;;;;1.60;0.73;;;16.00;99.90;;;;;;4998777;28;20045;-77
2024/03/15 11:23:27;;;;;;;3.33;0.93;;;16.80;99.90;;;;;;5004022;28;20073;-77
2024/03/15 11:25:57;;;;;;;1.38;0.50;;;17.30;99.90;;;;;;5003015;28;20719;-77
2024/03/15 11:28:24;;;;;;;1.42;0.65;;;17.50;99.90;;;;;;5020329;28;20116;-77
2024/03/15 11:30:50;;;;;;;1.38;0.63;;;17.20;99.90;;;;;;4995597;28;20041;-77
2024/03/15 11:33:16;;;;;;;0.43;0.35;;;16.80;99.90;;;;;;5014473;28;20079;-77
2024/03/15 11:35:43;;;;;;;2.50;0.52;;;16.40;99.90;;;;;;4995174;28;20051;-77
2024/03/15 11:38:14;;;;;;;1.35;0.45;;;16.10;99.90;;;;;;5012245;28;20469;-78
2024/03/15 11:40:40;;;;;;;1.73;0.70;;;15.80;99.90;;;;;;5004472;28;20080;-78
2024/03/15 11:43:10;;;;;;;0.40;0.17;;;15.60;99.90;;;;;;5015419;28;20549;-78
2024/03/15 11:45:43;;;;;;;0.35;0.15;;;15.50;99.90;;;;;;4996026;28;20065;-79
2024/03/15 11:48:18;;;;;;;0.65;0.30;;;15.40;99.90;;;;;;5016882;28;20053;-78
2024/03/15 11:50:54;;;;;;;0.52;0.30;;;15.30;99.90;;;;;;5012054;28;20116;-79
2024/03/15 11:53:22;;;;;;;0.80;0.50;;;15.20;99.90;;;;;;5022005;28;20065;-78
2024/03/15 11:55:51;;;;;;;2.08;0.35;;;15.10;99.90;;;;;;5019236;28;20041;-79
2024/03/15 11:58:21;;;;;;;0.93;0.52;;;15.10;99.90;;;;;;5022036;28;20116;-79
2024/03/15 12:00:54;;;;;;;2.22;0.88;;;15.00;99.90;;;;;;5000549;28;20073;-79
2024/03/15 12:03:22;;;;;;;1.05;0.40;;;15.00;99.90;;;;;;4997161;28;20568;-79
2024/03/15 12:05:48;;;;;;;5.88;0.85;;;15.00;99.90;;;;;;5019511;28;20127;-79
2024/03/15 12:08:24;;;;;;;0.60;0.40;;;14.80;99.90;;;;;;5011602;28;20049;-79
2024/03/15 12:10:52;;;;;;;5.20;1.17;;;14.80;99.90;;;;;;5011960;28;20464;-79
2024/03/15 12:13:18;;;;;;;1.90;1.05;;;14.70;99.90;;;;;;5019174;28;20445;-79
2024/03/15 12:15:45;;;;;;;0.57;0.40;;;14.70;99.90;;;;;;5009127;28;20505;-78
2024/03/15 12:18:19;;;;;;;3.17;0.93;;;14.70;99.90;;;;;;5009920;28;20088;-79
2024/03/15 12:20:45;;;;;;;1.30;0.60;;;14.70;99.90;;;;;;5025145;28;20053;-78
2024/03/15 12:23:13;;;;;;;4.15;1.10;;;14.70;99.90;;;;;;5023406;28;20279;-78
2024/03/15 12:25:39;;;;;;;2.40;1.05;;;14.80;99.90;;;;;;5006230;28;20099;-78
2024/03/15 12:28:06;;;;;;;1.83;0.93;;;15.00;99.90;;;;;;4999347;28;20051;-78
2024/03/15 12:30:32;;;;;;;1.17;0.68;;;16.10;99.90;;;;;;5005409;28;20111;-79
2024/03/15 12:32:58;;;;;;;2.75;0.98;;;17.20;99.90;;;;;;5010056;28;20041;-78
2024/03/15 12:35:24;;;;;;;1.13;0.73;;;17.40;99.90;;;;;;5009662;28;20045;-78
2024/03/15 12:37:52;;;;;;;2.35;0.80;;;17.00;99.90;;;;;;4997218;28;20037;-78
2024/03/15 12:40:17;;;;;;;1.75;0.65;;;16.80;99.90;;;;;;4996964;28;20037;-78
2024/03/15 12:42:44;;;;;;;0.82;0.50;;;16.70;99.90;;;;;;5007700;28;20401;-78
2024/03/15 12:45:10;;;;;;;0.65;0.40;;;17.20;99.90;;;;;;5013811;28;20077;-78
2024/03/15 12:47:37;;;;;;;2.05;0.70;;;17.10;99.90;;;;;;5008801;28;20175;-79
2024/03/15 12:50:20;;;;;;;2.30;0.75;;;16.90;99.90;;;;;;5011601;28;20109;-79
2024/03/15 12:52:46;;;;;;;1.48;0.50;;;16.70;99.90;;;;;;5002898;28;20042;-79
2024/03/15 12:55:16;;;;;;;2.25;0.77;;;16.40;99.90;;;;;;5005243;28;20667;-79
2024/03/15 12:57:46;;;;;;;1.58;0.50;;;16.10;99.90;;;;;;4983882;28;20504;-79